sensor_id;sensor_type;location;lat;lon;timestamp;temperature;humidity
16479;DHT22;8350;52.316;10.530;2023-03-04T00:01:32;3.10;16.70
16479;DHT22;8350;52.316;10.530;2023-03-04T00:03:59;3.10;12.70
16479;DHT22;8350;52.316;10.530;2023-03-04T00:06:25;3.20;8.70
16479;DHT22;8350;52.316;10.530;2023-03-04T00:08:52;3.20;4.80
16479;DHT22;8350;52.316;10.530;2023-03-04T00:11:19;3.30;1.00
16479;DHT22;8350;52.316;10.530;2023-03-04T00:13:50;3.40;1.00
16479;DHT22;8350;52.316;10.530;2023-03-04T00:16:17;3.40;1.00
16479;DHT22;8350;52.316;10.530;2023-03-04T00:18:46;3.40;1.00
16479;DHT22;8350;52.316;10.530;2023-03-04T00:21:13;3.40;1.00
16479;DHT22;8350;52.316;10.530;2023-03-04T00:23:39;3.50;1.00
16479;DHT22;8350;52.316;10.530;2023-03-04T00:26:08;3.50;1.00
16479;DHT22;8350;52.316;10.530;2023-03-04T00:28:35;3.50;1.00
16479;DHT22;8350;52.316;10.530;2023-03-04T00:31:03;3.50;1.00
16479;DHT22;8350;52.316;10.530;2023-03-04T00:33:29;3.50;1.00
16479;DHT22;8350;52.316;10.530;2023-03-04T00:35:58;3.50;1.00
16479;DHT22;8350;52.316;10.530;2023-03-04T00:38:25;3.50;1.00
16479;DHT22;8350;52.316;10.530;2023-03-04T00:40:51;3.60;1.00
16479;DHT22;8350;52.316;10.530;2023-03-04T00:43:18;3.60;1.00
16479;DHT22;8350;52.316;10.530;2023-03-04T00:45:45;3.60;1.00
16479;DHT22;8350;52.316;10.530;2023-03-04T00:48:15;3.60;1.00
16479;DHT22;8350;52.316;10.530;2023-03-04T00:50:42;3.70;1.00
16479;DHT22;8350;52.316;10.530;2023-03-04T00:53:11;3.70;1.00
16479;DHT22;8350;52.316;10.530;2023-03-04T00:55:38;3.70;1.00
16479;DHT22;8350;52.316;10.530;2023-03-04T00:58:04;3.70;1.00
16479;DHT22;8350;52.316;10.530;2023-03-04T01:00:31;3.80;1.00
16479;DHT22;8350;52.316;10.530;2023-03-04T01:02:58;3.80;1.00
16479;DHT22;8350;52.316;10.530;2023-03-04T01:05:26;3.80;1.00
16479;DHT22;8350;52.316;10.530;2023-03-04T01:07:53;3.80;1.00
16479;DHT22;8350;52.316;10.530;2023-03-04T01:10:21;3.80;1.00
16479;DHT22;8350;52.316;10.530;2023-03-04T01:12:48;3.80;1.00
16479;DHT22;8350;52.316;10.530;2023-03-04T01:15:15;3.80;1.00
16479;DHT22;8350;52.316;10.530;2023-03-04T01:17:41;3.90;1.00
16479;DHT22;8350;52.316;10.530;2023-03-04T01:20:10;3.90;1.00
16479;DHT22;8350;52.316;10.530;2023-03-04T01:22:37;3.90;1.00
16479;DHT22;8350;52.316;10.530;2023-03-04T01:25:04;3.90;1.00
16479;DHT22;8350;52.316;10.530;2023-03-04T01:27:32;4.00;1.00
16479;DHT22;8350;52.316;10.530;2023-03-04T01:29:59;4.00;1.00
16479;DHT22;8350;52.316;10.530;2023-03-04T01:32:26;4.00;1.00
16479;DHT22;8350;52.316;10.530;2023-03-04T01:34:53;4.00;1.00
16479;DHT22;8350;52.316;10.530;2023-03-04T01:37:19;4.00;1.00
16479;DHT22;8350;52.316;10.530;2023-03-04T01:39:49;4.00;1.00
16479;DHT22;8350;52.316;10.530;2023-03-04T01:42:20;4.00;1.00
16479;DHT22;8350;52.316;10.530;2023-03-04T01:44:50;4.10;1.00
16479;DHT22;8350;52.316;10.530;2023-03-04T01:47:17;4.10;1.00
16479;DHT22;8350;52.316;10.530;2023-03-04T01:49:46;4.10;1.00
16479;DHT22;8350;52.316;10.530;2023-03-04T01:52:14;4.10;1.00
16479;DHT22;8350;52.316;10.530;2023-03-04T01:54:41;4.10;1.00
16479;DHT22;8350;52.316;10.530;2023-03-04T01:57:15;4.10;1.00
16479;DHT22;8350;52.316;10.530;2023-03-04T01:59:42;4.20;1.00
16479;DHT22;8350;52.316;10.530;2023-03-04T02:02:11;4.10;1.00
16479;DHT22;8350;52.316;10.530;2023-03-04T02:04:39;4.20;1.00
16479;DHT22;8350;52.316;10.530;2023-03-04T02:07:07;4.10;1.00
16479;DHT22;8350;52.316;10.530;2023-03-04T02:09:34;4.20;1.00
16479;DHT22;8350;52.316;10.530;2023-03-04T02:12:01;4.20;1.00
16479;DHT22;8350;52.316;10.530;2023-03-04T02:14:29;4.20;1.00
16479;DHT22;8350;52.316;10.530;2023-03-04T02:16:56;4.20;1.00
16479;DHT22;8350;52.316;10.530;2023-03-04T02:19:34;4.20;1.00
16479;DHT22;8350;52.316;10.530;2023-03-04T02:22:02;4.20;1.00
16479;DHT22;8350;52.316;10.530;2023-03-04T02:24:32;4.20;1.00
16479;DHT22;8350;52.316;10.530;2023-03-04T02:27:07;4.20;1.00
16479;DHT22;8350;52.316;10.530;2023-03-04T02:29:34;4.20;1.00
16479;DHT22;8350;52.316;10.530;2023-03-04T02:32:01;4.20;1.00
16479;DHT22;8350;52.316;10.530;2023-03-04T02:34:30;4.20;1.00
16479;DHT22;8350;52.316;10.530;2023-03-04T02:36:57;4.20;1.00
16479;DHT22;8350;52.316;10.530;2023-03-04T02:39:28;4.30;1.00
16479;DHT22;8350;52.316;10.530;2023-03-04T02:41:56;4.30;1.00
16479;DHT22;8350;52.316;10.530;2023-03-04T02:44:26;4.30;1.00
16479;DHT22;8350;52.316;10.530;2023-03-04T02:46:53;4.20;1.00
16479;DHT22;8350;52.316;10.530;2023-03-04T02:49:22;4.20;1.00
16479;DHT22;8350;52.316;10.530;2023-03-04T02:51:51;4.30;1.00
16479;DHT22;8350;52.316;10.530;2023-03-04T02:54:20;4.30;1.00
16479;DHT22;8350;52.316;10.530;2023-03-04T02:56:48;4.30;1.00
16479;DHT22;8350;52.316;10.530;2023-03-04T02:59:15;4.40;1.00
16479;DHT22;8350;52.316;10.530;2023-03-04T03:01:43;4.30;1.00
16479;DHT22;8350;52.316;10.530;2023-03-04T03:04:10;4.30;1.00
16479;DHT22;8350;52.316;10.530;2023-03-04T03:06:37;4.30;1.00
16479;DHT22;8350;52.316;10.530;2023-03-04T03:09:05;4.30;1.00
16479;DHT22;8350;52.316;10.530;2023-03-04T03:11:32;4.30;1.00
16479;DHT22;8350;52.316;10.530;2023-03-04T03:13:58;4.30;1.00
16479;DHT22;8350;52.316;10.530;2023-03-04T03:16:25;4.30;1.00
16479;DHT22;8350;52.316;10.530;2023-03-04T03:18:56;4.30;1.00
16479;DHT22;8350;52.316;10.530;2023-03-04T03:21:23;4.30;1.00
16479;DHT22;8350;52.316;10.530;2023-03-04T03:26:37;4.30;2.60
16479;DHT22;8350;52.316;10.530;2023-03-04T03:29:05;4.30;10.90
16479;DHT22;8350;52.316;10.530;2023-03-04T03:31:32;4.20;17.60
16479;DHT22;8350;52.316;10.530;2023-03-04T03:34:00;4.20;17.30
16479;DHT22;8350;52.316;10.530;2023-03-04T03:36:27;4.20;21.70
16479;DHT22;8350;52.316;10.530;2023-03-04T03:38:53;4.20;22.60
16479;DHT22;8350;52.316;10.530;2023-03-04T03:41:20;4.20;28.50
16479;DHT22;8350;52.316;10.530;2023-03-04T03:43:47;4.30;36.20
16479;DHT22;8350;52.316;10.530;2023-03-04T03:46:14;4.20;40.00
16479;DHT22;8350;52.316;10.530;2023-03-04T03:48:41;4.20;46.70
16479;DHT22;8350;52.316;10.530;2023-03-04T03:51:09;4.20;47.40
16479;DHT22;8350;52.316;10.530;2023-03-04T03:53:36;4.20;54.50
16479;DHT22;8350;52.316;10.530;2023-03-04T03:56:04;4.20;57.00
16479;DHT22;8350;52.316;10.530;2023-03-04T03:58:31;4.20;57.70
16479;DHT22;8350;52.316;10.530;2023-03-04T04:00:58;4.30;65.00
16479;DHT22;8350;52.316;10.530;2023-03-04T04:03:24;4.20;73.20
16479;DHT22;8350;52.316;10.530;2023-03-04T04:05:51;4.20;80.40
16479;DHT22;8350;52.316;10.530;2023-03-04T04:08:19;4.20;86.30
16479;DHT22;8350;52.316;10.530;2023-03-04T04:10:48;4.20;89.90
16479;DHT22;8350;52.316;10.530;2023-03-04T04:13:15;4.20;89.00
16479;DHT22;8350;52.316;10.530;2023-03-04T04:15:42;4.20;87.10
16479;DHT22;8350;52.316;10.530;2023-03-04T04:18:09;4.20;81.00
16479;DHT22;8350;52.316;10.530;2023-03-04T04:20:35;4.20;79.30
16479;DHT22;8350;52.316;10.530;2023-03-04T04:23:02;4.20;80.20
16479;DHT22;8350;52.316;10.530;2023-03-04T04:25:31;4.20;81.90
16479;DHT22;8350;52.316;10.530;2023-03-04T04:27:58;4.20;84.60
16479;DHT22;8350;52.316;10.530;2023-03-04T04:30:28;4.20;87.00
16479;DHT22;8350;52.316;10.530;2023-03-04T04:32:55;4.20;91.30
16479;DHT22;8350;52.316;10.530;2023-03-04T04:35:26;4.20;92.40
16479;DHT22;8350;52.316;10.530;2023-03-04T04:37:52;4.20;94.10
16479;DHT22;8350;52.316;10.530;2023-03-04T04:40:19;4.20;95.10
16479;DHT22;8350;52.316;10.530;2023-03-04T04:42:47;4.20;97.80
16479;DHT22;8350;52.316;10.530;2023-03-04T04:45:14;4.20;99.90
16479;DHT22;8350;52.316;10.530;2023-03-04T04:47:43;4.20;99.90
16479;DHT22;8350;52.316;10.530;2023-03-04T04:50:10;4.20;99.90
16479;DHT22;8350;52.316;10.530;2023-03-04T04:52:37;4.20;99.70
16479;DHT22;8350;52.316;10.530;2023-03-04T04:55:16;4.20;99.90
16479;DHT22;8350;52.316;10.530;2023-03-04T04:57:43;4.20;99.90
16479;DHT22;8350;52.316;10.530;2023-03-04T05:00:12;4.20;99.90
16479;DHT22;8350;52.316;10.530;2023-03-04T05:02:41;4.20;99.90
16479;DHT22;8350;52.316;10.530;2023-03-04T05:05:08;4.20;99.90
16479;DHT22;8350;52.316;10.530;2023-03-04T05:07:35;4.20;99.90
16479;DHT22;8350;52.316;10.530;2023-03-04T05:10:03;4.20;99.90
16479;DHT22;8350;52.316;10.530;2023-03-04T05:12:30;4.20;99.90
16479;DHT22;8350;52.316;10.530;2023-03-04T05:14:57;4.20;99.90
16479;DHT22;8350;52.316;10.530;2023-03-04T05:17:25;4.20;99.90
16479;DHT22;8350;52.316;10.530;2023-03-04T05:19:52;4.20;99.90
16479;DHT22;8350;52.316;10.530;2023-03-04T05:22:19;4.20;99.90
16479;DHT22;8350;52.316;10.530;2023-03-04T05:24:46;4.20;99.90
16479;DHT22;8350;52.316;10.530;2023-03-04T05:27:13;4.20;99.90
16479;DHT22;8350;52.316;10.530;2023-03-04T05:29:39;4.20;99.90
16479;DHT22;8350;52.316;10.530;2023-03-04T05:32:09;4.20;99.90
16479;DHT22;8350;52.316;10.530;2023-03-04T05:34:37;4.20;99.90
16479;DHT22;8350;52.316;10.530;2023-03-04T05:37:04;4.20;99.90
16479;DHT22;8350;52.316;10.530;2023-03-04T05:39:32;4.20;99.90
16479;DHT22;8350;52.316;10.530;2023-03-04T05:41:59;4.20;99.90
16479;DHT22;8350;52.316;10.530;2023-03-04T05:44:25;4.20;99.90
16479;DHT22;8350;52.316;10.530;2023-03-04T05:46:52;4.20;99.90
16479;DHT22;8350;52.316;10.530;2023-03-04T05:49:19;4.20;99.90
16479;DHT22;8350;52.316;10.530;2023-03-04T05:51:47;4.20;99.90
16479;DHT22;8350;52.316;10.530;2023-03-04T05:54:14;4.10;99.90
16479;DHT22;8350;52.316;10.530;2023-03-04T05:56:41;4.10;99.90
16479;DHT22;8350;52.316;10.530;2023-03-04T05:59:08;4.10;99.90
16479;DHT22;8350;52.316;10.530;2023-03-04T06:01:37;4.10;99.90
16479;DHT22;8350;52.316;10.530;2023-03-04T06:04:06;4.10;99.90
16479;DHT22;8350;52.316;10.530;2023-03-04T06:06:34;4.10;99.90
16479;DHT22;8350;52.316;10.530;2023-03-04T06:09:02;4.10;99.90
16479;DHT22;8350;52.316;10.530;2023-03-04T06:11:29;4.10;99.90
16479;DHT22;8350;52.316;10.530;2023-03-04T06:13:56;4.10;99.90
16479;DHT22;8350;52.316;10.530;2023-03-04T06:16:22;4.10;99.90
16479;DHT22;8350;52.316;10.530;2023-03-04T06:18:49;4.10;99.90
16479;DHT22;8350;52.316;10.530;2023-03-04T06:21:16;4.10;99.90
16479;DHT22;8350;52.316;10.530;2023-03-04T06:23:42;4.10;99.90
16479;DHT22;8350;52.316;10.530;2023-03-04T06:26:11;4.10;99.90
16479;DHT22;8350;52.316;10.530;2023-03-04T06:28:39;4.10;99.90
16479;DHT22;8350;52.316;10.530;2023-03-04T06:31:06;4.10;99.90
16479;DHT22;8350;52.316;10.530;2023-03-04T06:33:36;4.20;99.90
16479;DHT22;8350;52.316;10.530;2023-03-04T06:36:07;4.10;99.90
16479;DHT22;8350;52.316;10.530;2023-03-04T06:38:46;4.10;99.90
16479;DHT22;8350;52.316;10.530;2023-03-04T06:41:14;4.10;99.90
16479;DHT22;8350;52.316;10.530;2023-03-04T06:43:41;4.10;99.90
16479;DHT22;8350;52.316;10.530;2023-03-04T06:46:08;4.10;99.90
16479;DHT22;8350;52.316;10.530;2023-03-04T06:48:37;4.20;99.90
16479;DHT22;8350;52.316;10.530;2023-03-04T06:51:05;4.20;99.90
16479;DHT22;8350;52.316;10.530;2023-03-04T06:53:51;4.10;99.90
16479;DHT22;8350;52.316;10.530;2023-03-04T06:56:19;4.20;99.90
16479;DHT22;8350;52.316;10.530;2023-03-04T06:58:46;4.20;99.90
16479;DHT22;8350;52.316;10.530;2023-03-04T07:01:15;4.20;99.90
16479;DHT22;8350;52.316;10.530;2023-03-04T07:03:51;4.20;99.90
16479;DHT22;8350;52.316;10.530;2023-03-04T07:06:19;4.20;99.90
16479;DHT22;8350;52.316;10.530;2023-03-04T07:08:47;4.20;99.90
16479;DHT22;8350;52.316;10.530;2023-03-04T07:11:14;4.20;99.90
16479;DHT22;8350;52.316;10.530;2023-03-04T07:13:42;4.20;99.90
16479;DHT22;8350;52.316;10.530;2023-03-04T07:16:11;4.30;99.90
16479;DHT22;8350;52.316;10.530;2023-03-04T07:18:39;4.30;99.90
16479;DHT22;8350;52.316;10.530;2023-03-04T07:21:07;4.30;99.90
16479;DHT22;8350;52.316;10.530;2023-03-04T07:23:34;4.40;99.90
16479;DHT22;8350;52.316;10.530;2023-03-04T07:26:02;4.40;99.90
16479;DHT22;8350;52.316;10.530;2023-03-04T07:28:28;4.40;99.90
16479;DHT22;8350;52.316;10.530;2023-03-04T07:30:56;4.40;99.90
16479;DHT22;8350;52.316;10.530;2023-03-04T07:33:34;4.40;99.90
16479;DHT22;8350;52.316;10.530;2023-03-04T07:36:01;4.40;99.90
16479;DHT22;8350;52.316;10.530;2023-03-04T07:38:28;4.40;99.90
16479;DHT22;8350;52.316;10.530;2023-03-04T07:40:57;4.50;99.90
16479;DHT22;8350;52.316;10.530;2023-03-04T07:43:36;4.50;99.90
16479;DHT22;8350;52.316;10.530;2023-03-04T07:46:05;4.60;99.90
16479;DHT22;8350;52.316;10.530;2023-03-04T07:48:32;4.70;99.90
16479;DHT22;8350;52.316;10.530;2023-03-04T07:51:03;4.70;99.90
16479;DHT22;8350;52.316;10.530;2023-03-04T07:53:30;4.60;99.90
16479;DHT22;8350;52.316;10.530;2023-03-04T07:55:57;4.60;99.90
16479;DHT22;8350;52.316;10.530;2023-03-04T07:58:24;4.60;99.90
16479;DHT22;8350;52.316;10.530;2023-03-04T08:00:51;4.60;99.90
16479;DHT22;8350;52.316;10.530;2023-03-04T08:03:19;4.60;99.90
16479;DHT22;8350;52.316;10.530;2023-03-04T08:05:46;4.60;99.90
16479;DHT22;8350;52.316;10.530;2023-03-04T08:08:13;4.70;99.90
16479;DHT22;8350;52.316;10.530;2023-03-04T08:10:40;4.70;99.90
16479;DHT22;8350;52.316;10.530;2023-03-04T08:13:07;4.80;99.90
16479;DHT22;8350;52.316;10.530;2023-03-04T08:15:39;4.90;99.90
16479;DHT22;8350;52.316;10.530;2023-03-04T08:18:06;4.90;99.90
16479;DHT22;8350;52.316;10.530;2023-03-04T08:20:34;4.90;99.90
16479;DHT22;8350;52.316;10.530;2023-03-04T08:23:01;4.80;99.90
16479;DHT22;8350;52.316;10.530;2023-03-04T08:25:28;4.80;99.90
16479;DHT22;8350;52.316;10.530;2023-03-04T08:27:55;4.70;99.90
16479;DHT22;8350;52.316;10.530;2023-03-04T08:30:22;4.70;99.90
16479;DHT22;8350;52.316;10.530;2023-03-04T08:32:49;4.70;99.90
16479;DHT22;8350;52.316;10.530;2023-03-04T08:35:16;4.70;99.90
16479;DHT22;8350;52.316;10.530;2023-03-04T08:37:44;4.70;99.90
16479;DHT22;8350;52.316;10.530;2023-03-04T08:40:14;4.80;99.90
16479;DHT22;8350;52.316;10.530;2023-03-04T08:42:41;4.80;99.90
16479;DHT22;8350;52.316;10.530;2023-03-04T08:45:08;4.90;99.90
16479;DHT22;8350;52.316;10.530;2023-03-04T08:47:36;4.90;99.90
16479;DHT22;8350;52.316;10.530;2023-03-04T08:50:03;5.00;99.90
16479;DHT22;8350;52.316;10.530;2023-03-04T08:52:31;5.10;99.90
16479;DHT22;8350;52.316;10.530;2023-03-04T08:54:59;5.20;99.90
16479;DHT22;8350;52.316;10.530;2023-03-04T08:57:26;5.30;99.90
16479;DHT22;8350;52.316;10.530;2023-03-04T08:59:53;5.30;99.90
16479;DHT22;8350;52.316;10.530;2023-03-04T09:02:20;5.30;99.90
16479;DHT22;8350;52.316;10.530;2023-03-04T09:04:47;5.30;99.90
16479;DHT22;8350;52.316;10.530;2023-03-04T09:07:13;5.40;99.90
16479;DHT22;8350;52.316;10.530;2023-03-04T09:09:40;5.40;99.10
16479;DHT22;8350;52.316;10.530;2023-03-04T09:12:09;5.50;97.80
16479;DHT22;8350;52.316;10.530;2023-03-04T09:14:37;5.60;92.80
16479;DHT22;8350;52.316;10.530;2023-03-04T09:17:04;5.60;47.60
16479;DHT22;8350;52.316;10.530;2023-03-04T09:19:31;5.60;57.10
16479;DHT22;8350;52.316;10.530;2023-03-04T09:21:58;5.60;53.30
16479;DHT22;8350;52.316;10.530;2023-03-04T09:24:25;5.60;44.90
16479;DHT22;8350;52.316;10.530;2023-03-04T09:26:53;5.50;39.20
16479;DHT22;8350;52.316;10.530;2023-03-04T09:29:22;5.50;63.00
16479;DHT22;8350;52.316;10.530;2023-03-04T09:31:49;5.50;72.70
16479;DHT22;8350;52.316;10.530;2023-03-04T09:34:16;5.60;76.20
16479;DHT22;8350;52.316;10.530;2023-03-04T09:36:43;5.70;65.50
16479;DHT22;8350;52.316;10.530;2023-03-04T09:39:09;5.70;46.20
16479;DHT22;8350;52.316;10.530;2023-03-04T09:41:39;5.70;57.10
16479;DHT22;8350;52.316;10.530;2023-03-04T09:44:14;5.70;47.00
16479;DHT22;8350;52.316;10.530;2023-03-04T09:46:44;5.70;51.80
16479;DHT22;8350;52.316;10.530;2023-03-04T09:49:12;5.80;32.30
16479;DHT22;8350;52.316;10.530;2023-03-04T09:51:45;5.80;6.50
16479;DHT22;8350;52.316;10.530;2023-03-04T09:54:20;5.90;10.60
16479;DHT22;8350;52.316;10.530;2023-03-04T09:56:50;5.90;1.00
16479;DHT22;8350;52.316;10.530;2023-03-04T09:59:24;6.00;1.00
16479;DHT22;8350;52.316;10.530;2023-03-04T10:01:55;6.00;5.90
16479;DHT22;8350;52.316;10.530;2023-03-04T10:04:29;6.10;4.30
16479;DHT22;8350;52.316;10.530;2023-03-04T10:06:58;6.10;1.00
16479;DHT22;8350;52.316;10.530;2023-03-04T10:09:28;6.10;1.00
16479;DHT22;8350;52.316;10.530;2023-03-04T10:12:01;6.10;1.00
16479;DHT22;8350;52.316;10.530;2023-03-04T10:14:37;6.10;1.00
16479;DHT22;8350;52.316;10.530;2023-03-04T10:17:12;6.10;1.40
16479;DHT22;8350;52.316;10.530;2023-03-04T10:19:56;6.10;1.00
16479;DHT22;8350;52.316;10.530;2023-03-04T10:22:28;6.20;1.00
16479;DHT22;8350;52.316;10.530;2023-03-04T10:25:17;6.10;3.80
16479;DHT22;8350;52.316;10.530;2023-03-04T10:27:50;6.10;40.30
16479;DHT22;8350;52.316;10.530;2023-03-04T10:30:22;6.00;79.90
16479;DHT22;8350;52.316;10.530;2023-03-04T10:32:53;5.90;99.90
16479;DHT22;8350;52.316;10.530;2023-03-04T10:35:23;5.70;76.70
16479;DHT22;8350;52.316;10.530;2023-03-04T10:37:51;5.60;37.90
16479;DHT22;8350;52.316;10.530;2023-03-04T10:40:22;5.50;55.00
16479;DHT22;8350;52.316;10.530;2023-03-04T10:42:53;5.40;70.80
16479;DHT22;8350;52.316;10.530;2023-03-04T10:45:23;5.30;89.00
16479;DHT22;8350;52.316;10.530;2023-03-04T10:48:02;5.20;95.50
16479;DHT22;8350;52.316;10.530;2023-03-04T10:50:29;5.30;98.10
16479;DHT22;8350;52.316;10.530;2023-03-04T10:53:00;5.40;99.90
16479;DHT22;8350;52.316;10.530;2023-03-04T10:55:28;5.40;99.90
16479;DHT22;8350;52.316;10.530;2023-03-04T10:58:00;5.50;99.90
16479;DHT22;8350;52.316;10.530;2023-03-04T11:00:31;5.40;76.30
16479;DHT22;8350;52.316;10.530;2023-03-04T11:03:24;5.30;90.20
16479;DHT22;8350;52.316;10.530;2023-03-04T11:05:53;5.20;91.80
16479;DHT22;8350;52.316;10.530;2023-03-04T11:08:29;5.10;99.90
16479;DHT22;8350;52.316;10.530;2023-03-04T11:10:56;5.10;99.90
16479;DHT22;8350;52.316;10.530;2023-03-04T11:13:24;5.30;99.90
16479;DHT22;8350;52.316;10.530;2023-03-04T11:15:57;5.40;99.90
16479;DHT22;8350;52.316;10.530;2023-03-04T11:18:29;5.60;96.20
16479;DHT22;8350;52.316;10.530;2023-03-04T11:20:57;5.70;26.30
16479;DHT22;8350;52.316;10.530;2023-03-04T11:23:32;5.90;26.10
16479;DHT22;8350;52.316;10.530;2023-03-04T11:26:03;5.90;1.00
16479;DHT22;8350;52.316;10.530;2023-03-04T11:28:40;5.90;1.00
16479;DHT22;8350;52.316;10.530;2023-03-04T11:31:12;5.80;1.00
16479;DHT22;8350;52.316;10.530;2023-03-04T11:33:45;5.80;6.00
16479;DHT22;8350;52.316;10.530;2023-03-04T11:36:25;5.70;23.00
16479;DHT22;8350;52.316;10.530;2023-03-04T11:38:55;5.60;52.60
16479;DHT22;8350;52.316;10.530;2023-03-04T11:41:25;5.50;75.60
16479;DHT22;8350;52.316;10.530;2023-03-04T11:43:57;5.40;93.40
16479;DHT22;8350;52.316;10.530;2023-03-04T11:46:37;5.40;99.90
16479;DHT22;8350;52.316;10.530;2023-03-04T11:49:33;5.40;99.90
16479;DHT22;8350;52.316;10.530;2023-03-04T11:52:08;5.60;99.90
16479;DHT22;8350;52.316;10.530;2023-03-04T11:54:44;5.80;60.20
16479;DHT22;8350;52.316;10.530;2023-03-04T11:57:23;6.00;42.60
16479;DHT22;8350;52.316;10.530;2023-03-04T12:00:10;6.30;42.00
16479;DHT22;8350;52.316;10.530;2023-03-04T12:02:45;6.40;18.20
16479;DHT22;8350;52.316;10.530;2023-03-04T12:05:25;6.50;1.00
16479;DHT22;8350;52.316;10.530;2023-03-04T12:08:04;6.60;1.00
16479;DHT22;8350;52.316;10.530;2023-03-04T12:10:35;6.80;1.00
16479;DHT22;8350;52.316;10.530;2023-03-04T12:13:29;7.00;1.00
16479;DHT22;8350;52.316;10.530;2023-03-04T12:16:10;6.90;1.00
16479;DHT22;8350;52.316;10.530;2023-03-04T12:18:52;6.70;1.00
16479;DHT22;8350;52.316;10.530;2023-03-04T12:21:31;6.40;1.00
16479;DHT22;8350;52.316;10.530;2023-03-04T12:24:21;6.30;1.00
16479;DHT22;8350;52.316;10.530;2023-03-04T12:26:54;6.30;1.00
16479;DHT22;8350;52.316;10.530;2023-03-04T12:29:28;6.30;1.00
16479;DHT22;8350;52.316;10.530;2023-03-04T12:32:03;6.20;1.00
16479;DHT22;8350;52.316;10.530;2023-03-04T12:34:41;6.30;1.00
16479;DHT22;8350;52.316;10.530;2023-03-04T12:37:29;6.40;1.00
16479;DHT22;8350;52.316;10.530;2023-03-04T12:40:19;6.60;1.00
16479;DHT22;8350;52.316;10.530;2023-03-04T12:43:02;6.70;1.00
16479;DHT22;8350;52.316;10.530;2023-03-04T12:45:39;6.80;1.00
16479;DHT22;8350;52.316;10.530;2023-03-04T12:48:20;6.70;1.00
16479;DHT22;8350;52.316;10.530;2023-03-04T12:50:55;6.60;1.00
16479;DHT22;8350;52.316;10.530;2023-03-04T12:53:30;6.60;1.00
16479;DHT22;8350;52.316;10.530;2023-03-04T12:56:02;6.60;1.00
16479;DHT22;8350;52.316;10.530;2023-03-04T12:58:32;6.40;1.00
16479;DHT22;8350;52.316;10.530;2023-03-04T13:01:04;6.20;1.00
16479;DHT22;8350;52.316;10.530;2023-03-04T13:03:51;6.10;1.00
16479;DHT22;8350;52.316;10.530;2023-03-04T13:06:29;6.10;1.00
16479;DHT22;8350;52.316;10.530;2023-03-04T13:09:03;6.10;1.00
16479;DHT22;8350;52.316;10.530;2023-03-04T13:11:50;6.40;1.00
16479;DHT22;8350;52.316;10.530;2023-03-04T13:14:29;6.70;1.00
16479;DHT22;8350;52.316;10.530;2023-03-04T13:16:58;7.00;1.00
16479;DHT22;8350;52.316;10.530;2023-03-04T13:19:47;7.40;1.00
16479;DHT22;8350;52.316;10.530;2023-03-04T13:22:41;7.20;1.00
16479;DHT22;8350;52.316;10.530;2023-03-04T13:25:41;6.90;1.00
16479;DHT22;8350;52.316;10.530;2023-03-04T13:28:23;6.80;1.00
16479;DHT22;8350;52.316;10.530;2023-03-04T13:31:22;6.70;1.00
16479;DHT22;8350;52.316;10.530;2023-03-04T13:34:02;6.40;1.00
16479;DHT22;8350;52.316;10.530;2023-03-04T13:39:37;5.90;1.00
16479;DHT22;8350;52.316;10.530;2023-03-04T13:42:39;5.70;1.00
16479;DHT22;8350;52.316;10.530;2023-03-04T13:45:30;5.70;1.00
16479;DHT22;8350;52.316;10.530;2023-03-04T13:47:59;5.70;1.00
16479;DHT22;8350;52.316;10.530;2023-03-04T13:50:36;5.70;1.00
16479;DHT22;8350;52.316;10.530;2023-03-04T13:53:29;5.60;1.00
16479;DHT22;8350;52.316;10.530;2023-03-04T13:56:20;5.70;1.00
16479;DHT22;8350;52.316;10.530;2023-03-04T13:58:53;5.60;1.00
16479;DHT22;8350;52.316;10.530;2023-03-04T14:01:28;5.50;18.50
16479;DHT22;8350;52.316;10.530;2023-03-04T14:03:56;5.50;43.50
16479;DHT22;8350;52.316;10.530;2023-03-04T14:06:25;5.50;48.30
16479;DHT22;8350;52.316;10.530;2023-03-04T14:08:52;5.60;13.10
16479;DHT22;8350;52.316;10.530;2023-03-04T14:11:28;5.60;8.10
16479;DHT22;8350;52.316;10.530;2023-03-04T14:14:04;5.70;1.00
16479;DHT22;8350;52.316;10.530;2023-03-04T14:16:34;5.90;1.00
16479;DHT22;8350;52.316;10.530;2023-03-04T14:19:04;6.10;1.00
16479;DHT22;8350;52.316;10.530;2023-03-04T14:21:33;6.30;1.00
16479;DHT22;8350;52.316;10.530;2023-03-04T14:24:04;6.30;1.00
16479;DHT22;8350;52.316;10.530;2023-03-04T14:26:32;6.50;1.00
16479;DHT22;8350;52.316;10.530;2023-03-04T14:29:00;6.50;1.00
16479;DHT22;8350;52.316;10.530;2023-03-04T14:31:30;6.30;1.00
16479;DHT22;8350;52.316;10.530;2023-03-04T14:34:17;6.20;1.00
16479;DHT22;8350;52.316;10.530;2023-03-04T14:36:47;6.20;1.00
16479;DHT22;8350;52.316;10.530;2023-03-04T14:39:15;6.20;1.00
16479;DHT22;8350;52.316;10.530;2023-03-04T14:41:45;6.10;1.00
16479;DHT22;8350;52.316;10.530;2023-03-04T14:44:22;5.90;1.00
16479;DHT22;8350;52.316;10.530;2023-03-04T14:46:55;5.90;1.00
16479;DHT22;8350;52.316;10.530;2023-03-04T14:49:22;5.70;1.00
16479;DHT22;8350;52.316;10.530;2023-03-04T14:51:50;5.70;1.00
16479;DHT22;8350;52.316;10.530;2023-03-04T14:54:27;5.80;1.00
16479;DHT22;8350;52.316;10.530;2023-03-04T14:56:54;5.80;1.00
16479;DHT22;8350;52.316;10.530;2023-03-04T14:59:33;5.70;1.00
16479;DHT22;8350;52.316;10.530;2023-03-04T15:02:17;5.70;1.00
16479;DHT22;8350;52.316;10.530;2023-03-04T15:04:45;5.60;1.00
16479;DHT22;8350;52.316;10.530;2023-03-04T15:07:15;5.50;1.00
16479;DHT22;8350;52.316;10.530;2023-03-04T15:09:49;5.60;1.00
16479;DHT22;8350;52.316;10.530;2023-03-04T15:12:23;5.60;1.00
16479;DHT22;8350;52.316;10.530;2023-03-04T15:14:54;5.50;1.00
16479;DHT22;8350;52.316;10.530;2023-03-04T15:17:24;5.50;1.00
16479;DHT22;8350;52.316;10.530;2023-03-04T15:20:16;5.50;1.00
16479;DHT22;8350;52.316;10.530;2023-03-04T15:22:58;5.60;1.00
16479;DHT22;8350;52.316;10.530;2023-03-04T15:25:28;5.60;1.00
16479;DHT22;8350;52.316;10.530;2023-03-04T15:27:55;5.60;1.00
16479;DHT22;8350;52.316;10.530;2023-03-04T15:30:25;5.50;1.00
16479;DHT22;8350;52.316;10.530;2023-03-04T15:32:54;5.60;1.00
16479;DHT22;8350;52.316;10.530;2023-03-04T15:35:22;5.50;1.00
16479;DHT22;8350;52.316;10.530;2023-03-04T15:37:50;5.40;1.00
16479;DHT22;8350;52.316;10.530;2023-03-04T15:40:27;5.40;1.00
16479;DHT22;8350;52.316;10.530;2023-03-04T15:42:56;5.30;1.00
16479;DHT22;8350;52.316;10.530;2023-03-04T15:48:47;5.20;1.00
16479;DHT22;8350;52.316;10.530;2023-03-04T15:51:15;5.20;1.00
16479;DHT22;8350;52.316;10.530;2023-03-04T15:53:45;5.00;1.00
16479;DHT22;8350;52.316;10.530;2023-03-04T15:56:15;5.00;1.00
16479;DHT22;8350;52.316;10.530;2023-03-04T15:58:43;4.90;1.00
16479;DHT22;8350;52.316;10.530;2023-03-04T16:01:14;4.90;1.00
16479;DHT22;8350;52.316;10.530;2023-03-04T16:03:41;4.80;1.00
16479;DHT22;8350;52.316;10.530;2023-03-04T16:06:11;4.80;1.00
16479;DHT22;8350;52.316;10.530;2023-03-04T16:08:40;4.70;1.00
16479;DHT22;8350;52.316;10.530;2023-03-04T16:11:13;4.70;1.00
16479;DHT22;8350;52.316;10.530;2023-03-04T16:13:40;4.70;1.00
16479;DHT22;8350;52.316;10.530;2023-03-04T16:16:09;4.80;1.00
16479;DHT22;8350;52.316;10.530;2023-03-04T16:18:36;4.80;1.00
16479;DHT22;8350;52.316;10.530;2023-03-04T16:21:06;4.80;1.00
16479;DHT22;8350;52.316;10.530;2023-03-04T16:23:41;4.80;1.00
16479;DHT22;8350;52.316;10.530;2023-03-04T16:26:11;4.90;1.00